createdAt,value
2023-03-07T00:00:04.158Z,88.61
2023-03-07T00:00:36.376Z,88.79
2023-03-07T00:01:09.112Z,88.42
2023-03-07T00:01:41.215Z,88.40
2023-03-07T00:02:15.126Z,88.16
2023-03-07T00:02:51.357Z,88.10
2023-03-07T00:03:23.085Z,87.79
2023-03-07T00:03:55.693Z,88.41
2023-03-07T00:04:27.470Z,88.17
2023-03-07T00:04:59.231Z,87.92
2023-03-07T00:05:32.225Z,87.78
2023-03-07T00:06:10.586Z,88.00
2023-03-07T00:06:42.495Z,87.66
2023-03-07T00:07:14.974Z,87.39
2023-03-07T00:07:46.653Z,87.26
2023-03-07T00:08:18.331Z,87.90
2023-03-07T00:08:55.406Z,87.73
2023-03-07T00:09:27.316Z,87.49
2023-03-07T00:09:59.000Z,87.24
2023-03-07T00:10:30.790Z,87.45
2023-03-07T00:11:04.327Z,87.47
2023-03-07T00:11:36.007Z,87.13
2023-03-07T00:12:09.513Z,87.17
2023-03-07T00:12:41.355Z,86.92
2023-03-07T00:13:13.126Z,87.11
2023-03-07T00:13:45.357Z,87.21
2023-03-07T00:14:17.160Z,87.24
2023-03-07T00:14:48.928Z,87.57
2023-03-07T00:15:20.831Z,87.55
2023-03-07T00:15:52.513Z,87.75
2023-03-07T00:16:25.068Z,87.47
2023-03-07T00:16:56.792Z,87.05
2023-03-07T00:17:28.549Z,87.61
2023-03-07T00:18:00.238Z,87.58
2023-03-07T00:18:33.079Z,87.40
2023-03-07T00:19:05.330Z,86.90
2023-03-07T00:19:37.059Z,86.77
2023-03-07T00:20:16.183Z,87.29
2023-03-07T00:20:58.178Z,87.75
2023-03-07T00:21:31.549Z,87.51
2023-03-07T00:22:03.457Z,87.29
2023-03-07T00:22:35.916Z,87.45
2023-03-07T00:23:07.620Z,87.19
2023-03-07T00:23:42.142Z,87.38
2023-03-07T00:24:14.001Z,87.01
2023-03-07T00:24:48.669Z,86.92
2023-03-07T00:25:20.349Z,87.09
2023-03-07T00:26:06.374Z,87.03
2023-03-07T00:26:39.829Z,86.68
2023-03-07T00:27:11.561Z,87.20
2023-03-07T00:27:43.302Z,86.98
2023-03-07T00:28:15.737Z,86.67
2023-03-07T00:28:49.947Z,86.62
2023-03-07T00:29:22.588Z,87.11
2023-03-07T00:29:54.401Z,87.22
2023-03-07T00:30:26.176Z,87.07
2023-03-07T00:31:05.916Z,87.06
2023-03-07T00:31:38.183Z,86.80
2023-03-07T00:32:10.403Z,86.65
2023-03-07T00:32:42.192Z,87.10
2023-03-07T00:33:13.867Z,87.35
2023-03-07T00:33:45.823Z,86.85
2023-03-07T00:34:17.551Z,86.97
2023-03-07T00:34:49.281Z,86.90
2023-03-07T00:35:20.975Z,86.54
2023-03-07T00:36:03.802Z,86.75
2023-03-07T00:36:35.493Z,86.44
2023-03-07T00:37:07.176Z,86.39
2023-03-07T00:37:39.051Z,86.41
2023-03-07T00:38:10.958Z,85.84
2023-03-07T00:38:43.180Z,86.05
2023-03-07T00:39:15.658Z,86.35
2023-03-07T00:40:18.839Z,85.53
2023-03-07T00:41:08.001Z,85.43
2023-03-07T00:41:40.000Z,85.67
2023-03-07T00:42:13.068Z,85.64
2023-03-07T00:42:44.751Z,85.16
2023-03-07T00:43:16.477Z,85.65
2023-03-07T00:43:49.058Z,85.76
2023-03-07T00:44:20.850Z,85.86
2023-03-07T00:44:52.578Z,85.37
2023-03-07T00:45:24.330Z,85.25
2023-03-07T00:45:56.874Z,85.47
2023-03-07T00:46:29.109Z,85.36
2023-03-07T00:47:00.853Z,84.35
2023-03-07T00:47:32.527Z,85.40
2023-03-07T00:48:04.193Z,84.98
2023-03-07T00:48:38.252Z,84.36
2023-03-07T00:49:09.994Z,85.35
2023-03-07T00:49:41.741Z,84.90
2023-03-07T00:50:13.449Z,85.27
2023-03-07T00:50:46.065Z,85.35
2023-03-07T00:51:19.706Z,85.52
2023-03-07T00:51:51.501Z,84.78
2023-03-07T00:52:23.256Z,85.94
2023-03-07T00:52:54.993Z,85.86
2023-03-07T00:53:26.888Z,85.08
2023-03-07T00:53:58.593Z,84.78
2023-03-07T00:54:30.284Z,84.95
2023-03-07T00:55:02.053Z,85.46
2023-03-07T00:55:33.777Z,85.48
2023-03-07T00:56:08.174Z,85.38
2023-03-07T00:56:40.184Z,84.99
2023-03-07T00:57:11.876Z,84.63
2023-03-07T00:57:43.601Z,84.97
2023-03-07T00:58:17.056Z,85.69
2023-03-07T00:58:49.586Z,85.36
2023-03-07T00:59:21.320Z,84.58
2023-03-07T00:59:53.043Z,84.96
2023-03-07T01:00:26.410Z,85.26
2023-03-07T01:00:58.523Z,85.22
2023-03-07T01:01:30.281Z,85.16
2023-03-07T01:02:01.933Z,84.82
2023-03-07T01:02:33.801Z,85.61
2023-03-07T01:03:05.514Z,84.85
2023-03-07T01:03:37.292Z,85.17
2023-03-07T01:04:09.365Z,84.30
2023-03-07T01:04:42.184Z,84.80
2023-03-07T01:05:13.882Z,84.38
2023-03-07T01:05:47.140Z,85.12
2023-03-07T01:06:21.265Z,84.89
2023-03-07T01:06:53.019Z,85.06
2023-03-07T01:07:24.706Z,84.88
2023-03-07T01:07:56.455Z,84.62
2023-03-07T01:08:28.174Z,84.43
2023-03-07T01:09:07.364Z,85.11
2023-03-07T01:09:39.071Z,84.06
2023-03-07T01:10:11.049Z,84.19
2023-03-07T01:10:43.425Z,83.58
2023-03-07T01:11:15.419Z,84.77
2023-03-07T01:11:49.680Z,83.95
2023-03-07T01:12:21.398Z,84.31
2023-03-07T01:12:53.389Z,84.37
2023-03-07T01:13:25.546Z,84.00
2023-03-07T01:14:02.938Z,84.21
2023-03-07T01:14:34.921Z,84.39
2023-03-07T01:15:07.109Z,84.06
2023-03-07T01:15:39.211Z,84.13
2023-03-07T01:16:25.968Z,84.12
2023-03-07T01:16:57.889Z,84.17
2023-03-07T01:17:29.706Z,84.57
2023-03-07T01:18:01.462Z,85.01
2023-03-07T01:18:33.143Z,84.63
2023-03-07T01:19:07.670Z,84.49
2023-03-07T01:19:39.401Z,84.24
2023-03-07T01:20:11.686Z,84.49
2023-03-07T01:20:43.974Z,84.73
2023-03-07T01:21:21.013Z,84.45
2023-03-07T01:21:53.008Z,84.46
2023-03-07T01:22:24.682Z,84.70
2023-03-07T01:22:56.376Z,84.67
2023-03-07T01:23:28.062Z,84.49
2023-03-07T01:24:00.277Z,84.68
2023-03-07T01:24:31.933Z,84.00
2023-03-07T01:25:03.828Z,84.52
2023-03-07T01:25:40.146Z,84.59
2023-03-07T01:26:16.534Z,83.91
2023-03-07T01:26:49.154Z,83.92
2023-03-07T01:27:20.815Z,84.18
2023-03-07T01:27:53.426Z,84.31
2023-03-07T01:28:25.099Z,84.38
2023-03-07T01:28:59.873Z,83.75
2023-03-07T01:29:31.861Z,83.71
2023-03-07T01:30:04.777Z,83.83
2023-03-07T01:30:36.447Z,83.86
2023-03-07T01:31:08.256Z,83.44
2023-03-07T01:31:40.176Z,83.67
2023-03-07T01:32:11.912Z,84.02
2023-03-07T01:32:43.773Z,84.04
2023-03-07T01:33:15.497Z,84.19
2023-03-07T01:33:48.620Z,83.85
2023-03-07T01:34:20.256Z,83.47
2023-03-07T01:34:51.958Z,84.04
2023-03-07T01:35:24.430Z,83.70
2023-03-07T01:35:56.284Z,83.63
2023-03-07T01:36:31.726Z,83.53
2023-03-07T01:37:03.481Z,83.81
2023-03-07T01:37:35.179Z,83.36
2023-03-07T01:38:07.228Z,83.23
2023-03-07T01:38:38.913Z,83.41
2023-03-07T01:39:17.001Z,83.12
2023-03-07T01:39:52.626Z,83.48
2023-03-07T01:40:25.005Z,82.82
2023-03-07T01:40:56.691Z,83.38
2023-03-07T01:41:32.956Z,83.64
2023-03-07T01:42:04.926Z,84.01
2023-03-07T01:42:36.625Z,83.91
2023-03-07T01:43:29.360Z,83.82
2023-03-07T01:44:02.711Z,83.36
2023-03-07T01:44:58.867Z,83.59
2023-03-07T01:45:33.364Z,82.79
2023-03-07T01:46:17.105Z,82.28
2023-03-07T01:46:57.055Z,83.44
2023-03-07T01:47:28.887Z,82.78
2023-03-07T01:48:00.754Z,82.74
2023-03-07T01:48:32.589Z,82.32
2023-03-07T01:49:11.442Z,82.98
2023-03-07T01:49:46.307Z,82.26
2023-03-07T01:50:19.065Z,82.21
2023-03-07T01:50:50.910Z,82.10
2023-03-07T01:51:23.670Z,82.61
2023-03-07T01:52:05.475Z,82.28
2023-03-07T01:52:41.873Z,82.54
2023-03-07T01:53:15.857Z,82.78
2023-03-07T01:53:51.029Z,82.34
2023-03-07T01:54:24.717Z,82.86
2023-03-07T01:55:02.087Z,82.41
2023-03-07T01:55:35.657Z,81.62
2023-03-07T01:56:08.825Z,82.41
2023-03-07T01:56:40.993Z,81.84
2023-03-07T01:57:12.743Z,82.56
2023-03-07T01:57:49.460Z,82.08
2023-03-07T01:58:21.214Z,82.24
2023-03-07T01:58:54.385Z,82.02
2023-03-07T01:59:31.681Z,82.40
2023-03-07T02:00:09.895Z,82.27
2023-03-07T02:00:44.464Z,82.09
2023-03-07T02:01:17.288Z,82.33
2023-03-07T02:01:50.662Z,82.36
2023-03-07T02:02:24.576Z,82.27
2023-03-07T02:03:11.561Z,82.39
2023-03-07T02:03:50.926Z,82.06
2023-03-07T02:04:34.520Z,82.10
2023-03-07T02:05:18.010Z,81.22
2023-03-07T02:05:54.445Z,81.38
2023-03-07T02:06:28.762Z,81.40
2023-03-07T02:07:03.201Z,81.92
2023-03-07T02:07:41.283Z,81.74
2023-03-07T02:08:16.466Z,82.02
2023-03-07T02:08:50.000Z,81.59
2023-03-07T02:09:25.780Z,81.86
2023-03-07T02:09:58.654Z,82.14
2023-03-07T02:10:33.006Z,82.09
2023-03-07T02:11:05.860Z,81.61
2023-03-07T02:11:38.868Z,81.44
2023-03-07T02:12:11.348Z,81.64
2023-03-07T02:12:43.042Z,81.76
2023-03-07T02:13:14.938Z,81.78
2023-03-07T02:13:46.684Z,81.13
2023-03-07T02:14:18.420Z,81.75
2023-03-07T02:14:51.562Z,81.42
2023-03-07T02:15:23.484Z,81.96
2023-03-07T02:15:57.681Z,81.67
2023-03-07T02:16:29.395Z,81.62
2023-03-07T02:17:01.564Z,81.48
2023-03-07T02:17:33.372Z,81.20
2023-03-07T02:18:06.414Z,82.10
2023-03-07T02:18:46.023Z,81.90
2023-03-07T02:19:42.349Z,82.40
2023-03-07T02:20:14.580Z,81.87
2023-03-07T02:21:09.449Z,82.21
2023-03-07T02:21:55.239Z,82.18
2023-03-07T02:22:27.679Z,81.64
2023-03-07T02:22:59.558Z,82.31
2023-03-07T02:24:08.300Z,82.28
2023-03-07T02:24:56.284Z,81.00
2023-03-07T02:25:44.054Z,81.67
2023-03-07T02:26:31.078Z,81.70
2023-03-07T02:27:02.842Z,81.79
2023-03-07T02:27:37.284Z,81.75
2023-03-07T02:28:14.669Z,81.44
2023-03-07T02:28:48.353Z,81.59
2023-03-07T02:29:21.108Z,81.97
2023-03-07T02:29:53.185Z,81.61
2023-03-07T02:30:25.686Z,81.56
2023-03-07T02:31:01.756Z,81.57
2023-03-07T02:31:33.490Z,81.01
2023-03-07T02:32:07.831Z,81.43
2023-03-07T02:32:39.921Z,81.47
2023-03-07T02:33:11.658Z,81.68
2023-03-07T02:33:43.385Z,81.53
2023-03-07T02:34:29.933Z,81.66
2023-03-07T02:35:01.615Z,81.88
2023-03-07T02:35:33.394Z,81.40
2023-03-07T02:36:13.028Z,81.74
2023-03-07T02:36:45.781Z,81.84
2023-03-07T02:37:26.657Z,82.20
2023-03-07T02:38:03.637Z,82.22
2023-03-07T02:38:40.016Z,82.02
2023-03-07T02:39:13.301Z,82.78
2023-03-07T02:39:46.973Z,81.94
2023-03-07T02:40:23.542Z,82.75
2023-03-07T02:40:56.652Z,82.64
2023-03-07T02:41:32.528Z,82.45
2023-03-07T02:42:10.502Z,82.62
2023-03-07T02:42:44.213Z,82.32
2023-03-07T02:43:16.698Z,82.16
2023-03-07T02:43:48.396Z,82.41
2023-03-07T02:44:20.130Z,82.88
2023-03-07T02:45:02.788Z,82.56
2023-03-07T02:45:34.482Z,82.72
2023-03-07T02:46:06.244Z,81.94
2023-03-07T02:46:38.056Z,83.40
2023-03-07T02:47:09.908Z,82.36
2023-03-07T02:47:43.302Z,82.50
2023-03-07T02:48:15.128Z,82.63
2023-03-07T02:48:47.536Z,82.19
2023-03-07T02:49:19.313Z,82.23
2023-03-07T02:49:51.203Z,82.65
2023-03-07T02:50:22.874Z,82.17
2023-03-07T02:50:54.590Z,82.75
2023-03-07T02:51:26.261Z,82.68
2023-03-07T02:52:00.770Z,82.80
2023-03-07T02:52:32.489Z,82.97
2023-03-07T02:53:04.478Z,83.38
2023-03-07T02:53:36.199Z,83.30
2023-03-07T02:54:08.523Z,83.60
2023-03-07T02:54:40.225Z,83.46
2023-03-07T02:55:12.822Z,83.28
2023-03-07T02:55:44.594Z,83.16
2023-03-07T02:56:16.751Z,83.32
2023-03-07T02:56:48.421Z,83.20
2023-03-07T02:57:20.103Z,82.99
2023-03-07T02:57:51.910Z,83.38
2023-03-07T02:58:23.736Z,82.78
2023-03-07T02:58:55.560Z,82.75
2023-03-07T02:59:27.391Z,83.01
2023-03-07T03:00:00.454Z,83.22
2023-03-07T03:00:32.193Z,82.98
2023-03-07T03:01:03.936Z,82.75
2023-03-07T03:01:36.426Z,82.50
2023-03-07T03:02:08.171Z,83.06
2023-03-07T03:02:39.891Z,82.88
2023-03-07T03:03:12.163Z,82.82
2023-03-07T03:03:44.731Z,83.42
2023-03-07T03:04:16.483Z,83.59
2023-03-07T03:04:48.337Z,83.23
2023-03-07T03:05:20.387Z,83.86
2023-03-07T03:05:52.094Z,84.11
2023-03-07T03:06:24.357Z,83.84
2023-03-07T03:06:56.054Z,84.03
2023-03-07T03:07:27.713Z,83.81
2023-03-07T03:07:59.527Z,83.60
2023-03-07T03:08:31.181Z,83.74
2023-03-07T03:09:03.010Z,83.72
2023-03-07T03:09:34.723Z,84.23
2023-03-07T03:10:07.095Z,83.65
2023-03-07T03:10:39.463Z,83.98
2023-03-07T03:11:11.121Z,84.54
2023-03-07T03:11:42.846Z,83.44
2023-03-07T03:12:14.494Z,84.17
2023-03-07T03:12:46.288Z,84.09
2023-03-07T03:13:18.000Z,84.15
2023-03-07T03:13:49.684Z,83.43
2023-03-07T03:14:21.347Z,83.31
2023-03-07T03:14:53.044Z,82.36
2023-03-07T03:15:24.739Z,82.23
2023-03-07T03:15:57.182Z,83.38
2023-03-07T03:16:29.059Z,83.43
2023-03-07T03:17:00.819Z,83.83
2023-03-07T03:17:32.498Z,84.82
2023-03-07T03:18:04.246Z,85.81
2023-03-07T03:18:36.002Z,87.26
2023-03-07T03:19:07.795Z,87.24
2023-03-07T03:19:39.574Z,87.79
2023-03-07T03:20:13.022Z,87.08
2023-03-07T03:20:44.732Z,87.27
2023-03-07T03:21:16.555Z,87.80
2023-03-07T03:21:48.865Z,87.35
2023-03-07T03:22:20.889Z,87.56
2023-03-07T03:22:53.088Z,87.11
2023-03-07T03:23:27.791Z,87.50
2023-03-07T03:24:04.954Z,88.01
2023-03-07T03:24:40.958Z,87.26
2023-03-07T03:25:14.771Z,87.39
2023-03-07T03:25:46.620Z,87.81
2023-03-07T03:26:18.635Z,87.79
2023-03-07T03:26:50.642Z,88.50
2023-03-07T03:27:22.336Z,88.65
2023-03-07T03:27:54.251Z,88.91
2023-03-07T03:28:25.953Z,88.85
2023-03-07T03:28:57.650Z,88.79
2023-03-07T03:29:29.340Z,87.76
2023-03-07T03:30:01.111Z,88.43
2023-03-07T03:30:35.746Z,87.49
2023-03-07T03:31:10.618Z,87.59
2023-03-07T03:31:42.390Z,87.75
2023-03-07T03:32:14.150Z,87.78
2023-03-07T03:32:47.199Z,87.98
2023-03-07T03:33:18.883Z,87.54
2023-03-07T03:33:52.532Z,87.73
2023-03-07T03:34:24.228Z,87.88
2023-03-07T03:34:55.983Z,88.15
2023-03-07T03:35:27.859Z,87.89
2023-03-07T03:36:05.204Z,87.06
2023-03-07T03:36:37.058Z,86.90
2023-03-07T03:37:08.734Z,87.87
2023-03-07T03:37:40.734Z,87.43
2023-03-07T03:38:12.451Z,87.42
2023-03-07T03:38:44.857Z,87.08
2023-03-07T03:39:16.959Z,87.76
2023-03-07T03:39:48.675Z,88.08
2023-03-07T03:40:20.892Z,88.36
2023-03-07T03:40:53.119Z,87.66
2023-03-07T03:41:25.723Z,88.13
2023-03-07T03:41:57.584Z,88.57
2023-03-07T03:42:29.296Z,87.99
2023-03-07T03:43:00.995Z,87.45
2023-03-07T03:43:32.730Z,87.17
2023-03-07T03:44:04.437Z,87.13
2023-03-07T03:44:36.227Z,86.55
2023-03-07T03:45:10.199Z,87.34
2023-03-07T03:45:42.684Z,86.93
2023-03-07T03:46:14.773Z,87.16
2023-03-07T03:46:48.336Z,86.76
2023-03-07T03:47:20.030Z,87.07
2023-03-07T03:47:51.728Z,87.43
2023-03-07T03:48:23.711Z,87.06
2023-03-07T03:48:56.185Z,87.29
2023-03-07T03:49:28.042Z,86.85
2023-03-07T03:49:59.712Z,86.38
2023-03-07T03:50:31.482Z,86.98
2023-03-07T03:51:12.338Z,85.91
2023-03-07T03:51:44.094Z,86.92
2023-03-07T03:52:15.776Z,86.16
2023-03-07T03:52:47.433Z,86.07
2023-03-07T03:53:19.310Z,85.62
2023-03-07T03:53:54.590Z,85.97
2023-03-07T03:54:26.339Z,85.97
2023-03-07T03:54:58.174Z,85.74
2023-03-07T03:55:30.028Z,85.17
2023-03-07T03:56:13.176Z,85.10
2023-03-07T03:56:44.921Z,85.14
2023-03-07T03:57:18.956Z,85.13
2023-03-07T03:57:50.632Z,85.54
2023-03-07T03:58:22.306Z,85.01
2023-03-07T03:58:56.884Z,85.33
2023-03-07T03:59:28.675Z,85.69
2023-03-07T04:00:00.348Z,85.24
2023-03-07T04:00:32.070Z,85.17
2023-03-07T04:01:08.968Z,84.63
2023-03-07T04:01:40.725Z,85.10
2023-03-07T04:02:12.927Z,85.20
2023-03-07T04:02:44.792Z,84.80
2023-03-07T04:03:16.544Z,84.74
2023-03-07T04:03:50.470Z,85.24
2023-03-07T04:04:24.334Z,85.19
2023-03-07T04:04:57.082Z,85.01
2023-03-07T04:05:28.798Z,84.98
2023-03-07T04:06:08.245Z,84.72
2023-03-07T04:06:39.965Z,85.49
2023-03-07T04:07:11.813Z,84.60
2023-03-07T04:07:43.700Z,85.30
2023-03-07T04:08:15.423Z,84.72
2023-03-07T04:08:48.012Z,85.19
2023-03-07T04:09:19.734Z,85.57
2023-03-07T04:09:51.458Z,84.90
2023-03-07T04:10:23.137Z,85.25
2023-03-07T04:10:54.809Z,85.58
2023-03-07T04:11:26.881Z,85.19
2023-03-07T04:11:58.666Z,84.68
2023-03-07T04:12:30.436Z,85.16
2023-03-07T04:13:02.140Z,85.06
2023-03-07T04:13:35.419Z,85.06
2023-03-07T04:14:07.154Z,84.99
2023-03-07T04:14:38.837Z,85.32
2023-03-07T04:15:12.610Z,85.16
2023-03-07T04:15:44.332Z,85.70
2023-03-07T04:16:17.107Z,85.16
2023-03-07T04:16:49.866Z,85.07
2023-03-07T04:17:21.732Z,85.77
2023-03-07T04:17:53.442Z,85.63
2023-03-07T04:18:25.265Z,85.28
2023-03-07T04:18:58.058Z,85.23
2023-03-07T04:19:29.889Z,85.47
2023-03-07T04:20:01.652Z,85.02
2023-03-07T04:20:33.356Z,85.03
2023-03-07T04:21:08.215Z,86.14
2023-03-07T04:21:41.029Z,86.13
2023-03-07T04:22:12.725Z,86.47
2023-03-07T04:22:44.986Z,85.99
2023-03-07T04:23:18.221Z,86.42
2023-03-07T04:23:50.589Z,85.93
2023-03-07T04:24:22.423Z,86.14
2023-03-07T04:24:54.120Z,85.96
2023-03-07T04:25:25.901Z,86.54
2023-03-07T04:25:59.810Z,86.62
2023-03-07T04:26:31.675Z,86.33
2023-03-07T04:27:03.809Z,86.62
2023-03-07T04:27:35.500Z,86.78
2023-03-07T04:28:07.215Z,86.79
2023-03-07T04:28:50.840Z,87.12
2023-03-07T04:29:22.638Z,87.07
2023-03-07T04:29:54.315Z,86.56
2023-03-07T04:30:26.469Z,86.92
2023-03-07T04:30:58.390Z,87.29
2023-03-07T04:31:31.081Z,86.53
2023-03-07T04:32:02.998Z,87.10
2023-03-07T04:32:35.396Z,87.42
2023-03-07T04:33:07.141Z,87.25
2023-03-07T04:33:39.088Z,87.16
2023-03-07T04:34:10.879Z,86.75
2023-03-07T04:34:42.630Z,86.93
2023-03-07T04:35:14.425Z,86.49
2023-03-07T04:35:46.799Z,86.36
2023-03-07T04:36:19.090Z,85.96
2023-03-07T04:36:50.922Z,86.36
2023-03-07T04:37:22.954Z,86.27
2023-03-07T04:37:54.677Z,86.34
2023-03-07T04:38:26.392Z,86.03
2023-03-07T04:38:58.066Z,85.99
2023-03-07T04:39:29.761Z,86.15
2023-03-07T04:40:01.441Z,85.89
2023-03-07T04:40:34.346Z,86.11
2023-03-07T04:41:07.703Z,85.99
2023-03-07T04:41:39.478Z,85.47
2023-03-07T04:42:11.394Z,86.30
2023-03-07T04:42:43.050Z,86.13
2023-03-07T04:43:14.785Z,86.13
2023-03-07T04:43:46.969Z,85.57
2023-03-07T04:44:18.691Z,85.75
2023-03-07T04:44:50.375Z,85.49
2023-03-07T04:45:22.058Z,84.80
2023-03-07T04:45:54.322Z,85.09
2023-03-07T04:46:26.884Z,85.12
2023-03-07T04:46:59.602Z,85.34
2023-03-07T04:47:31.326Z,85.26
2023-03-07T04:48:03.871Z,85.89
2023-03-07T04:48:35.657Z,85.73
2023-03-07T04:49:08.443Z,85.43
2023-03-07T04:49:40.477Z,85.48
2023-03-07T04:50:12.376Z,85.48
2023-03-07T04:50:44.195Z,84.93
2023-03-07T04:51:16.143Z,85.44
2023-03-07T04:51:47.824Z,85.00
2023-03-07T04:52:19.514Z,85.20
2023-03-07T04:52:51.232Z,85.38
2023-03-07T04:53:23.037Z,85.64
2023-03-07T04:53:54.754Z,85.28
2023-03-07T04:54:26.681Z,85.37
2023-03-07T04:54:58.573Z,85.82
2023-03-07T04:55:30.439Z,85.71
2023-03-07T04:56:05.382Z,85.64
2023-03-07T04:56:37.116Z,85.16
2023-03-07T04:57:09.342Z,85.16
2023-03-07T04:57:41.046Z,85.80
2023-03-07T04:58:13.704Z,85.29
2023-03-07T04:58:45.728Z,85.86
2023-03-07T04:59:17.611Z,85.50
2023-03-07T04:59:49.500Z,85.37
2023-03-07T05:00:21.458Z,85.56
2023-03-07T05:00:53.195Z,86.01
2023-03-07T05:01:25.244Z,85.29
2023-03-07T05:01:56.966Z,86.07
2023-03-07T05:02:28.694Z,85.62
2023-03-07T05:03:02.268Z,85.21
2023-03-07T05:03:34.701Z,85.35
2023-03-07T05:04:06.758Z,86.34
2023-03-07T05:04:41.583Z,85.74
2023-03-07T05:05:13.497Z,85.46
2023-03-07T05:05:48.033Z,85.28
2023-03-07T05:06:19.982Z,85.26
2023-03-07T05:06:51.957Z,84.92
2023-03-07T05:07:24.662Z,85.25
2023-03-07T05:07:56.467Z,85.54
2023-03-07T05:08:28.701Z,84.56
2023-03-07T05:09:00.600Z,85.31
2023-03-07T05:09:32.740Z,84.72
2023-03-07T05:10:04.853Z,85.36
2023-03-07T05:10:37.454Z,87.00
2023-03-07T05:11:09.182Z,88.76
2023-03-07T05:11:40.892Z,88.04
2023-03-07T05:12:12.577Z,89.04
2023-03-07T05:12:44.321Z,88.32
2023-03-07T05:13:16.119Z,90.08
2023-03-07T05:13:47.840Z,88.63
2023-03-07T05:14:19.612Z,90.10
2023-03-07T05:14:51.400Z,90.89
2023-03-07T05:15:23.459Z,88.79
2023-03-07T05:15:57.379Z,90.06
2023-03-07T05:16:29.225Z,88.76
2023-03-07T05:17:02.525Z,86.87
2023-03-07T05:17:34.193Z,85.59
2023-03-07T05:18:06.947Z,85.29
2023-03-07T05:18:38.681Z,85.15
2023-03-07T05:19:10.700Z,84.37
2023-03-07T05:19:43.115Z,84.53
2023-03-07T05:20:14.781Z,84.73
2023-03-07T05:20:47.144Z,84.33
2023-03-07T05:21:19.041Z,83.83
2023-03-07T05:21:50.757Z,84.22
2023-03-07T05:22:22.448Z,84.79
2023-03-07T05:22:54.504Z,84.51
2023-03-07T05:23:27.306Z,84.75
2023-03-07T05:23:59.002Z,84.49
2023-03-07T05:24:30.961Z,84.28
2023-03-07T05:25:02.668Z,85.58
2023-03-07T05:25:34.346Z,86.19
2023-03-07T05:26:06.136Z,87.52
2023-03-07T05:26:37.831Z,86.50
2023-03-07T05:27:11.100Z,85.99
2023-03-07T05:27:45.617Z,86.84
2023-03-07T05:28:17.658Z,86.65
2023-03-07T05:28:49.566Z,88.29
2023-03-07T05:29:21.285Z,86.29
2023-03-07T05:29:52.964Z,84.15
2023-03-07T05:30:24.670Z,84.27
2023-03-07T05:30:56.374Z,83.96
2023-03-07T05:31:28.711Z,84.08
2023-03-07T05:32:01.681Z,83.35
2023-03-07T05:32:33.681Z,83.52
2023-03-07T05:33:08.204Z,83.36
2023-03-07T05:33:42.713Z,83.48
2023-03-07T05:34:16.035Z,83.28
2023-03-07T05:34:48.315Z,82.89
2023-03-07T05:35:26.681Z,83.24
2023-03-07T05:36:02.644Z,83.55
2023-03-07T05:36:34.357Z,82.45
2023-03-07T05:37:06.046Z,82.40
2023-03-07T05:37:37.796Z,82.25
2023-03-07T05:38:10.262Z,82.16
2023-03-07T05:38:42.000Z,82.93
2023-03-07T05:39:15.574Z,83.10
2023-03-07T05:39:47.341Z,83.38
2023-03-07T05:40:19.693Z,83.60
2023-03-07T05:40:51.366Z,83.33
2023-03-07T05:41:23.543Z,83.27
2023-03-07T05:41:55.424Z,83.45
2023-03-07T05:42:27.138Z,83.70
2023-03-07T05:42:58.927Z,83.37
2023-03-07T05:43:30.622Z,83.57
2023-03-07T05:44:03.389Z,83.84
2023-03-07T05:44:35.302Z,83.72
2023-03-07T05:45:07.793Z,83.18
2023-03-07T05:45:39.508Z,83.63
2023-03-07T05:46:11.276Z,84.05
2023-03-07T05:46:43.055Z,84.19
2023-03-07T05:47:14.753Z,84.02
2023-03-07T05:47:46.510Z,84.78
2023-03-07T05:48:18.231Z,84.49
2023-03-07T05:48:50.030Z,83.84
2023-03-07T05:49:21.828Z,83.39
2023-03-07T05:49:53.519Z,83.70
2023-03-07T05:50:25.340Z,83.88
2023-03-07T05:51:01.265Z,83.28
2023-03-07T05:51:33.048Z,83.33
2023-03-07T05:52:05.023Z,83.09
2023-03-07T05:52:36.800Z,83.53
2023-03-07T05:53:08.889Z,83.58
2023-03-07T05:53:40.659Z,83.34
2023-03-07T05:54:12.426Z,83.26
2023-03-07T05:54:44.155Z,83.74
2023-03-07T05:55:15.988Z,83.23
2023-03-07T05:55:47.684Z,83.00
2023-03-07T05:56:19.444Z,83.59
2023-03-07T05:56:51.122Z,83.02
2023-03-07T05:57:23.502Z,82.98
2023-03-07T05:57:55.278Z,83.30
2023-03-07T05:58:27.053Z,83.33
2023-03-07T05:58:58.823Z,82.99
2023-03-07T05:59:30.535Z,83.23
2023-03-07T06:00:02.287Z,82.82
2023-03-07T06:00:33.976Z,83.26
2023-03-07T06:01:06.416Z,83.25
2023-03-07T06:01:38.313Z,83.53
2023-03-07T06:02:10.014Z,83.43
2023-03-07T06:02:42.614Z,83.40
2023-03-07T06:03:14.360Z,83.99
2023-03-07T06:03:47.764Z,83.75
2023-03-07T06:04:19.501Z,83.52
2023-03-07T06:04:51.248Z,83.54
2023-03-07T06:05:25.297Z,83.85
2023-03-07T06:05:58.738Z,83.45
2023-03-07T06:06:30.629Z,83.67
2023-03-07T06:07:02.364Z,84.02
2023-03-07T06:07:34.044Z,83.78
2023-03-07T06:08:06.266Z,83.51
2023-03-07T06:08:38.401Z,83.64
2023-03-07T06:09:10.110Z,83.42
2023-03-07T06:09:41.865Z,83.22
2023-03-07T06:10:14.443Z,83.61
2023-03-07T06:10:50.843Z,83.09
2023-03-07T06:11:22.562Z,83.13
2023-03-07T06:11:54.467Z,83.44
2023-03-07T06:12:26.141Z,83.55
2023-03-07T06:12:57.827Z,83.70
2023-03-07T06:13:31.165Z,83.91
2023-03-07T06:14:04.186Z,83.84
2023-03-07T06:14:36.056Z,83.42
2023-03-07T06:15:11.142Z,83.21
2023-03-07T06:15:42.800Z,83.91
2023-03-07T06:16:14.826Z,83.50
2023-03-07T06:16:46.991Z,83.44
2023-03-07T06:17:18.724Z,83.56
2023-03-07T06:17:52.628Z,83.54
2023-03-07T06:18:25.787Z,83.17
2023-03-07T06:18:57.557Z,82.88
2023-03-07T06:19:29.437Z,83.39
2023-03-07T06:20:01.134Z,83.63
2023-03-07T06:20:32.839Z,83.56
2023-03-07T06:21:07.599Z,83.33
2023-03-07T06:21:39.405Z,83.74
2023-03-07T06:22:11.168Z,83.20
2023-03-07T06:22:42.930Z,83.52
2023-03-07T06:23:14.590Z,83.11
2023-03-07T06:23:47.033Z,83.65
2023-03-07T06:24:18.802Z,83.41
2023-03-07T06:24:50.621Z,83.40
2023-03-07T06:25:22.324Z,83.53
2023-03-07T06:25:54.149Z,83.47
2023-03-07T06:26:25.836Z,83.58
2023-03-07T06:26:57.827Z,83.55
2023-03-07T06:27:33.666Z,83.56
2023-03-07T06:28:05.445Z,83.22
2023-03-07T06:28:37.134Z,83.96
2023-03-07T06:29:08.868Z,83.54
2023-03-07T06:29:40.572Z,83.58
2023-03-07T06:30:14.089Z,83.82
2023-03-07T06:30:45.939Z,83.54
2023-03-07T06:31:19.818Z,84.19
2023-03-07T06:31:51.550Z,83.69
2023-03-07T06:32:23.491Z,84.50
2023-03-07T06:32:55.329Z,83.51
2023-03-07T06:33:27.281Z,83.59
2023-03-07T06:33:58.991Z,83.07
2023-03-07T06:34:30.702Z,82.67
2023-03-07T06:35:02.464Z,83.01
2023-03-07T06:35:37.206Z,82.55
2023-03-07T06:36:11.437Z,83.05
2023-03-07T06:36:43.153Z,83.28
2023-03-07T06:37:14.965Z,82.76
2023-03-07T06:37:47.154Z,82.70
2023-03-07T06:38:18.856Z,82.66
2023-03-07T06:38:51.033Z,82.77
2023-03-07T06:39:22.993Z,82.70
2023-03-07T06:39:57.716Z,82.79
2023-03-07T06:40:29.384Z,82.19
2023-03-07T06:41:01.428Z,82.56
2023-03-07T06:41:33.480Z,82.24
2023-03-07T06:42:05.477Z,82.08
2023-03-07T06:42:37.768Z,81.52
2023-03-07T06:43:12.166Z,82.30
2023-03-07T06:43:43.892Z,81.65
2023-03-07T06:44:18.380Z,81.08
2023-03-07T06:44:50.114Z,81.67
2023-03-07T06:45:21.894Z,81.46
2023-03-07T06:45:54.540Z,82.00
2023-03-07T06:46:26.364Z,81.70
2023-03-07T06:46:58.005Z,81.72
2023-03-07T06:47:30.245Z,81.83
2023-03-07T06:48:01.964Z,81.54
2023-03-07T06:48:35.009Z,81.21
2023-03-07T06:49:06.733Z,81.26
2023-03-07T06:49:38.443Z,81.50
2023-03-07T06:50:10.514Z,81.17
2023-03-07T06:50:42.235Z,81.17
2023-03-07T06:51:13.960Z,81.27
2023-03-07T06:51:45.792Z,80.91
2023-03-07T06:52:17.468Z,80.84
2023-03-07T06:52:51.681Z,80.94
2023-03-07T06:53:23.379Z,80.74
2023-03-07T06:53:55.041Z,81.30
2023-03-07T06:54:27.298Z,82.36
2023-03-07T06:55:01.204Z,82.59
2023-03-07T06:55:32.905Z,82.97
2023-03-07T06:56:04.864Z,82.91
2023-03-07T06:56:36.649Z,82.51
2023-03-07T06:57:08.726Z,82.77
2023-03-07T06:57:40.371Z,83.03
2023-03-07T06:58:12.063Z,83.14
2023-03-07T06:58:43.803Z,83.19
2023-03-07T06:59:16.045Z,82.91
2023-03-07T06:59:47.808Z,83.11
2023-03-07T07:00:19.921Z,83.76
2023-03-07T07:00:51.648Z,84.06
2023-03-07T07:01:23.439Z,84.32
2023-03-07T07:01:55.244Z,84.19
2023-03-07T07:02:27.143Z,84.21
2023-03-07T07:02:59.055Z,84.01
2023-03-07T07:03:30.948Z,83.98
2023-03-07T07:04:03.288Z,83.16
2023-03-07T07:04:35.045Z,83.47
2023-03-07T07:05:06.897Z,83.32